Time;durP1;ratioP1;P1;durP2;ratioP2;P2;SDS_P1;SDS_P2;PMS_P1;PMS_P2;Temp;Humidity;BMP_temperature;BMP_pressure;BME280_temperature;BME280_humidity;BME280_pressure;Samples;Min_cycle;Max_cycle;Signal;HPM_P1;HPM_P2
2022/03/06 02:11:26;;;;;;;9.90;9.60;;;0.90;99.90;;;;;;4878176;29;20253;-86
2022/03/06 04:04:30;;;;;;;9.60;9.30;;;0.60;99.90;;;;;;4730980;30;20285;-86
2022/03/06 05:35:58;;;;;;;9.80;9.50;;;0.40;99.90;;;;;;4787637;29;20232;-87
2022/03/06 05:56:59;;;;;;;9.80;9.50;;;0.30;99.90;;;;;;4905109;23;20235;-82
2022/03/06 05:59:27;;;;;;;9.90;9.60;;;0.30;99.90;;;;;;4943345;28;20249;-82
2022/03/06 06:01:58;;;;;;;10.07;9.77;;;0.20;99.90;;;;;;4944094;28;20237;-82
2022/03/06 06:04:26;;;;;;;9.77;9.47;;;0.20;99.90;;;;;;4943944;28;20238;-82
2022/03/06 06:06:54;;;;;;;9.57;9.27;;;0.30;99.90;;;;;;4943196;28;20237;-82
2022/03/06 06:09:22;;;;;;;9.83;9.53;;;0.30;99.90;;;;;;4943873;28;20298;-81
2022/03/06 06:11:50;;;;;;;9.70;9.40;;;0.20;99.90;;;;;;4942960;28;20244;-82
2022/03/06 06:14:20;;;;;;;9.80;9.50;;;0.30;99.90;;;;;;4944622;28;20257;-82
2022/03/06 06:16:48;;;;;;;9.70;9.40;;;0.30;99.90;;;;;;4943527;28;20235;-82
2022/03/06 06:19:16;;;;;;;9.63;9.33;;;0.30;99.90;;;;;;4943648;28;20243;-82
2022/03/06 06:21:44;;;;;;;9.77;9.47;;;0.30;99.90;;;;;;4943993;28;20237;-83
2022/03/06 06:24:13;;;;;;;9.90;9.60;;;0.30;99.90;;;;;;4943414;29;20242;-82
2022/03/06 06:26:41;;;;;;;10.00;9.70;;;0.30;99.90;;;;;;4943214;28;20310;-82
2022/03/06 06:29:11;;;;;;;9.83;9.53;;;0.20;99.90;;;;;;4943648;28;20258;-82
2022/03/06 06:31:41;;;;;;;9.73;9.43;;;0.20;99.90;;;;;;4945009;28;20235;-83
2022/03/06 06:34:09;;;;;;;9.77;9.47;;;0.20;99.90;;;;;;4944472;28;20330;-81
2022/03/06 06:36:37;;;;;;;9.70;9.40;;;0.20;99.90;;;;;;4943137;28;20278;-81
2022/03/06 06:39:05;;;;;;;9.67;9.37;;;0.30;99.90;;;;;;4943801;28;20278;-82
2022/03/06 06:41:36;;;;;;;9.70;9.40;;;0.40;99.90;;;;;;4943972;28;20227;-82
2022/03/06 06:44:04;;;;;;;9.87;9.57;;;0.40;99.90;;;;;;4943622;28;20317;-82
2022/03/06 06:46:32;;;;;;;9.80;9.50;;;0.50;99.90;;;;;;4943769;28;20230;-82
2022/03/06 06:49:03;;;;;;;10.20;9.90;;;0.50;99.90;;;;;;4943553;28;20241;-82
2022/03/06 06:51:34;;;;;;;10.03;9.73;;;0.50;99.90;;;;;;4944267;28;20245;-82
2022/03/06 06:54:02;;;;;;;10.00;9.70;;;0.50;99.90;;;;;;4943193;28;20255;-81
2022/03/06 06:56:30;;;;;;;9.77;9.47;;;0.50;99.90;;;;;;4942968;28;20300;-82
2022/03/06 06:59:01;;;;;;;9.83;9.53;;;0.50;99.90;;;;;;4942768;28;20235;-82
2022/03/06 07:01:29;;;;;;;9.80;9.50;;;0.60;99.90;;;;;;4943251;28;20255;-81
2022/03/06 07:03:57;;;;;;;10.00;9.70;;;0.60;99.90;;;;;;4943140;29;20235;-82
2022/03/06 07:06:29;;;;;;;9.80;9.50;;;0.60;99.90;;;;;;4947869;28;20247;-82
2022/03/06 07:08:57;;;;;;;9.90;9.60;;;0.70;99.90;;;;;;4949471;28;20325;-81
2022/03/06 07:11:37;;;;;;;9.70;9.40;;;0.80;99.90;;;;;;4946676;28;20246;-82
2022/03/06 07:14:05;;;;;;;9.97;9.67;;;0.90;99.90;;;;;;4948876;28;20241;-82
2022/03/06 07:16:33;;;;;;;9.80;9.50;;;0.90;99.90;;;;;;4951770;28;20230;-82
2022/03/06 07:19:02;;;;;;;9.97;9.67;;;1.00;99.90;;;;;;4955337;28;20243;-82
2022/03/06 07:21:34;;;;;;;9.80;9.50;;;1.10;99.90;;;;;;4959728;28;20249;-83
2022/03/06 07:24:07;;;;;;;10.00;9.70;;;1.10;99.90;;;;;;4958400;28;20226;-83
2022/03/06 07:26:35;;;;;;;9.90;9.60;;;1.20;99.90;;;;;;4959144;28;20233;-82
2022/03/06 07:29:04;;;;;;;9.97;9.67;;;1.30;99.90;;;;;;4959844;28;20215;-82
2022/03/06 07:31:32;;;;;;;9.90;9.60;;;1.40;99.90;;;;;;4959489;28;20235;-83
2022/03/06 07:34:00;;;;;;;10.00;9.70;;;1.50;99.90;;;;;;4960624;28;20239;-83
2022/03/06 07:36:30;;;;;;;9.73;9.43;;;1.60;99.90;;;;;;4959846;28;20226;-83
2022/03/06 07:38:58;;;;;;;10.00;9.70;;;1.60;99.90;;;;;;4959224;29;20235;-83
2022/03/06 07:41:26;;;;;;;9.73;9.43;;;1.70;99.90;;;;;;4958380;28;20219;-82
2022/03/06 07:43:54;;;;;;;9.77;9.47;;;1.80;99.90;;;;;;4954625;29;20241;-82
2022/03/06 07:46:25;;;;;;;9.80;9.50;;;1.80;99.90;;;;;;4954571;28;20286;-83
2022/03/06 07:48:53;;;;;;;9.67;9.37;;;1.70;99.90;;;;;;4949595;28;20277;-83
2022/03/06 07:51:21;;;;;;;9.77;9.47;;;1.80;99.90;;;;;;4958188;28;20231;-83
2022/03/06 07:53:54;;;;;;;9.60;9.30;;;1.80;99.90;;;;;;4960398;28;20251;-83
2022/03/06 07:56:22;;;;;;;9.60;9.30;;;1.90;99.90;;;;;;4960168;28;20290;-83
2022/03/06 07:58:50;;;;;;;9.47;9.17;;;1.90;99.90;;;;;;4960897;28;20215;-83
2022/03/06 08:01:18;;;;;;;9.40;9.10;;;2.00;99.90;;;;;;4960789;28;20235;-83
2022/03/06 08:03:46;;;;;;;9.60;9.30;;;2.00;99.90;;;;;;4960401;28;20222;-83
2022/03/06 08:06:14;;;;;;;9.67;9.37;;;2.00;99.90;;;;;;4961081;28;20211;-83
2022/03/06 08:08:48;;;;;;;9.60;9.30;;;2.00;99.90;;;;;;4960029;28;20239;-83
2022/03/06 08:11:17;;;;;;;9.60;9.30;;;2.10;99.90;;;;;;4959791;28;20231;-83
2022/03/06 08:13:45;;;;;;;9.80;9.50;;;2.20;99.90;;;;;;4960499;28;20242;-83
2022/03/06 08:16:13;;;;;;;9.87;9.57;;;2.20;99.90;;;;;;4960515;28;20219;-82
2022/03/06 08:18:41;;;;;;;9.80;9.50;;;2.30;99.90;;;;;;4961119;28;20219;-83
2022/03/06 08:21:09;;;;;;;9.80;9.50;;;2.40;99.90;;;;;;4959394;28;20234;-83
2022/03/06 08:23:37;;;;;;;9.43;9.13;;;2.40;99.90;;;;;;4956060;28;20255;-83
2022/03/06 08:26:05;;;;;;;9.70;9.40;;;2.50;99.90;;;;;;4955613;28;20259;-83
2022/03/06 08:28:35;;;;;;;9.80;9.50;;;2.50;99.90;;;;;;4956755;28;20230;-83
2022/03/06 08:31:03;;;;;;;9.80;9.50;;;2.60;99.90;;;;;;4960610;28;20235;-83
2022/03/06 08:33:31;;;;;;;10.13;9.83;;;2.70;99.90;;;;;;4960539;28;20219;-83
2022/03/06 08:35:59;;;;;;;9.93;9.63;;;2.70;99.90;;;;;;4960428;28;20223;-83
2022/03/06 08:38:27;;;;;;;10.07;9.77;;;2.80;99.90;;;;;;4960525;28;20219;-84
2022/03/06 08:40:55;;;;;;;9.70;9.40;;;3.00;99.90;;;;;;4959215;28;20227;-83
2022/03/06 08:43:23;;;;;;;9.70;9.40;;;3.10;99.90;;;;;;4959407;28;20231;-81
2022/03/06 08:45:53;;;;;;;10.17;9.87;;;3.30;99.90;;;;;;4954918;28;20234;-83
2022/03/06 08:48:21;;;;;;;9.87;9.57;;;3.50;99.90;;;;;;4959968;28;20233;-82
2022/03/06 08:50:50;;;;;;;9.80;9.50;;;3.60;99.90;;;;;;4956984;28;20271;-81
2022/03/06 08:53:18;;;;;;;9.90;9.60;;;3.70;99.90;;;;;;4960623;28;20223;-81
2022/03/06 08:55:47;;;;;;;10.23;9.93;;;3.70;99.90;;;;;;4963280;28;20255;-82
2022/03/06 08:58:15;;;;;;;10.47;10.17;;;3.80;99.90;;;;;;4963605;28;20239;-81
2022/03/06 09:00:43;;;;;;;10.10;9.80;;;3.90;99.90;;;;;;4958028;28;20277;-80
2022/03/06 09:03:12;;;;;;;10.03;9.73;;;4.00;99.90;;;;;;4960609;28;20238;-81
2022/03/06 09:05:40;;;;;;;9.87;9.57;;;4.20;99.90;;;;;;4960665;28;20234;-81
2022/03/06 09:08:11;;;;;;;9.90;9.60;;;4.50;99.90;;;;;;4953532;28;20242;-81
2022/03/06 09:10:41;;;;;;;9.60;9.30;;;4.80;99.90;;;;;;4947113;28;20291;-81
2022/03/06 09:13:09;;;;;;;9.73;9.43;;;5.00;99.90;;;;;;4944878;28;20246;-81
2022/03/06 09:15:38;;;;;;;9.80;9.50;;;5.10;99.90;;;;;;4945424;28;20235;-82
2022/03/06 09:18:07;;;;;;;9.73;9.43;;;5.20;99.90;;;;;;4945735;28;20245;-82
2022/03/06 09:20:36;;;;;;;9.97;9.67;;;5.40;99.90;;;;;;4944885;28;20234;-82
2022/03/06 09:23:09;;;;;;;9.83;9.53;;;5.60;99.90;;;;;;4945336;28;20241;-82
2022/03/06 09:25:37;;;;;;;10.03;9.73;;;5.60;99.90;;;;;;4952888;28;20258;-81
2022/03/06 09:28:06;;;;;;;10.07;9.77;;;5.70;99.90;;;;;;4945895;28;20231;-82
2022/03/06 09:30:35;;;;;;;10.20;9.90;;;5.80;99.90;;;;;;4946672;28;20334;-82
2022/03/06 09:33:06;;;;;;;9.90;9.60;;;5.80;99.90;;;;;;4950554;28;20238;-82
2022/03/06 09:35:36;;;;;;;10.00;9.70;;;5.90;99.90;;;;;;4951934;28;20231;-82
2022/03/06 09:38:17;;;;;;;10.33;10.03;;;6.00;99.90;;;;;;4948811;29;20235;-82
2022/03/06 09:40:46;;;;;;;10.30;10.00;;;6.00;99.90;;;;;;4945893;28;20265;-82
2022/03/06 09:43:24;;;;;;;10.30;10.00;;;5.50;99.90;;;;;;4945174;28;20231;-82
2022/03/06 09:45:52;;;;;;;10.13;9.83;;;5.30;99.90;;;;;;4944809;28;20234;-81
2022/03/06 09:48:20;;;;;;;10.10;9.80;;;5.00;99.90;;;;;;4945076;29;20227;-82
2022/03/06 09:50:51;;;;;;;10.30;10.00;;;5.00;99.90;;;;;;4944486;28;20239;-82
2022/03/06 09:53:24;;;;;;;10.20;9.90;;;5.00;99.90;;;;;;4947542;28;20230;-82
2022/03/06 09:55:52;;;;;;;9.93;9.63;;;4.90;99.90;;;;;;4953454;29;20235;-82
2022/03/06 09:58:20;;;;;;;9.77;9.47;;;4.90;99.90;;;;;;4956226;29;20227;-81
2022/03/06 10:00:48;;;;;;;9.60;9.30;;;5.10;99.90;;;;;;4956290;28;20303;-81
2022/03/06 10:03:21;;;;;;;9.93;9.63;;;5.30;99.90;;;;;;4948446;28;20219;-82
2022/03/06 10:05:51;;;;;;;9.97;9.67;;;5.10;99.90;;;;;;4944881;28;20245;-82
2022/03/06 10:08:25;;;;;;;10.10;9.80;;;5.00;99.90;;;;;;4948700;28;20230;-82
2022/03/06 10:10:57;;;;;;;9.83;9.53;;;5.00;99.90;;;;;;4952137;28;20233;-82
2022/03/06 10:13:30;;;;;;;9.80;9.50;;;5.10;99.90;;;;;;4951432;28;21185;-81
2022/03/06 10:16:04;;;;;;;9.90;9.60;;;5.20;99.90;;;;;;4945434;28;20239;-82
2022/03/06 10:18:34;;;;;;;9.97;9.67;;;5.10;99.90;;;;;;4944177;28;20242;-81
2022/03/06 10:21:24;;;;;;;9.63;9.33;;;5.10;99.90;;;;;;4944705;28;20239;-82
2022/03/06 10:23:56;;;;;;;9.80;9.50;;;5.00;99.90;;;;;;4944427;28;20346;-81
2022/03/06 10:26:26;;;;;;;10.13;9.83;;;5.00;99.90;;;;;;4944365;28;20250;-82
2022/03/06 10:28:57;;;;;;;9.97;9.67;;;5.00;99.90;;;;;;4948632;28;20321;-82
2022/03/06 10:31:31;;;;;;;10.10;9.80;;;4.80;99.90;;;;;;4953807;28;20230;-82
2022/03/06 10:34:05;;;;;;;9.87;9.57;;;4.80;99.90;;;;;;4952296;28;20243;-82
2022/03/06 10:36:39;;;;;;;9.70;9.40;;;4.70;99.90;;;;;;4953251;28;20263;-82
2022/03/06 10:39:14;;;;;;;10.00;9.70;;;4.70;99.90;;;;;;4952400;28;20242;-82
2022/03/06 10:41:45;;;;;;;9.70;9.40;;;4.70;99.90;;;;;;4953311;28;20249;-83
2022/03/06 10:44:16;;;;;;;10.00;9.70;;;4.80;99.90;;;;;;4949638;28;20242;-82
2022/03/06 10:47:02;;;;;;;9.90;9.60;;;4.90;99.90;;;;;;4942632;28;20238;-82
2022/03/06 10:49:30;;;;;;;9.80;9.50;;;4.90;99.90;;;;;;4943054;28;20235;-83
2022/03/06 10:52:15;;;;;;;9.60;9.30;;;4.90;99.90;;;;;;4943003;28;20242;-83
2022/03/06 10:54:51;;;;;;;10.20;9.90;;;5.00;99.90;;;;;;4949032;29;20239;-81
2022/03/06 10:57:19;;;;;;;10.00;9.70;;;5.20;99.90;;;;;;4943062;28;20245;-81
2022/03/06 10:59:49;;;;;;;10.00;9.70;;;5.40;99.90;;;;;;4942939;28;20264;-81
2022/03/06 11:02:18;;;;;;;10.00;9.70;;;5.70;99.90;;;;;;4942865;28;20274;-81
2022/03/06 11:04:47;;;;;;;10.07;9.77;;;6.30;99.90;;;;;;4942745;28;20290;-81
2022/03/06 11:07:16;;;;;;;10.20;9.90;;;6.80;99.90;;;;;;4941700;28;20253;-82
2022/03/06 11:09:47;;;;;;;9.90;9.60;;;7.00;99.90;;;;;;4941205;28;20238;-82
2022/03/06 11:12:15;;;;;;;10.20;9.90;;;7.10;99.90;;;;;;4943347;28;20229;-81
2022/03/06 11:14:44;;;;;;;10.20;9.90;;;6.80;99.90;;;;;;4942111;28;20242;-81
2022/03/06 11:17:12;;;;;;;10.23;9.93;;;6.80;99.90;;;;;;4940553;28;20239;-82
2022/03/06 11:19:40;;;;;;;10.03;9.73;;;6.80;99.90;;;;;;4941956;28;20242;-82
2022/03/06 11:22:19;;;;;;;9.93;9.63;;;7.00;99.90;;;;;;4949485;29;20250;-82
2022/03/06 11:24:53;;;;;;;10.30;10.00;;;7.20;99.90;;;;;;4944508;29;20235;-81
2022/03/06 11:27:41;;;;;;;10.30;10.00;;;7.40;99.90;;;;;;4942999;28;20231;-81
2022/03/06 11:30:20;;;;;;;10.03;9.73;;;7.00;99.90;;;;;;4944147;28;20266;-81
2022/03/06 11:33:00;;;;;;;9.90;9.60;;;6.60;99.90;;;;;;4943773;28;20235;-82
2022/03/06 11:35:34;;;;;;;10.03;9.73;;;6.20;99.90;;;;;;4941899;28;20265;-81
2022/03/06 11:38:05;;;;;;;10.00;9.70;;;6.10;99.90;;;;;;4941656;28;20238;-81
2022/03/06 11:40:45;;;;;;;9.87;9.57;;;5.70;99.90;;;;;;4941840;28;20303;-81
2022/03/06 11:43:38;;;;;;;10.23;9.93;;;5.70;99.90;;;;;;4943077;28;20244;-82
2022/03/06 11:46:16;;;;;;;9.60;9.30;;;5.60;99.90;;;;;;4943955;28;20239;-81
2022/03/06 11:49:11;;;;;;;9.53;9.23;;;5.50;99.90;;;;;;4944799;28;20299;-82
2022/03/06 11:51:44;;;;;;;9.73;9.43;;;5.10;99.90;;;;;;4940732;28;20243;-82
2022/03/06 11:54:17;;;;;;;9.60;9.30;;;5.00;99.90;;;;;;4942063;28;20289;-81
2022/03/06 15:38:37;;;;;;;10.10;9.80;;;2.80;99.90;;;;;;4894486;29;20264;-86
2022/03/06 15:55:37;;;;;;;10.00;9.70;;;2.80;99.90;;;;;;4971135;28;20317;-88
2022/03/06 16:04:48;;;;;;;10.37;10.07;;;2.90;99.90;;;;;;4970107;28;20233;-86
2022/03/06 16:20:31;;;;;;;9.70;9.40;;;2.50;99.90;;;;;;4956898;28;20230;-87
2022/03/06 16:26:14;;;;;;;9.90;9.60;;;2.40;99.90;;;;;;4894872;29;20228;-86
2022/03/06 16:29:44;;;;;;;;;;;;;;;;;;;;;
2022/03/06 17:58:40;;;;;;;9.10;8.83;;;1.70;99.90;;;;;;5004674;23;20445;-82
2022/03/06 18:01:09;;;;;;;9.37;9.07;;;1.70;99.90;;;;;;4985642;28;20233;-81
2022/03/06 18:03:38;;;;;;;9.27;8.97;;;1.70;99.90;;;;;;4987874;28;20237;-82
2022/03/06 18:06:06;;;;;;;9.37;9.07;;;1.70;99.90;;;;;;4994311;28;20260;-82
2022/03/06 18:08:37;;;;;;;9.33;9.03;;;1.70;99.90;;;;;;4990136;28;20224;-82
2022/03/06 18:11:07;;;;;;;9.17;8.87;;;1.80;99.90;;;;;;4989537;28;20238;-82
2022/03/06 18:13:39;;;;;;;9.50;9.20;;;1.80;99.90;;;;;;4988102;28;20265;-82
2022/03/06 18:16:08;;;;;;;9.30;9.00;;;1.70;99.90;;;;;;4988124;28;20233;-81
2022/03/06 18:18:37;;;;;;;8.83;8.63;;;1.60;99.90;;;;;;4987184;28;20222;-82
2022/03/06 18:21:08;;;;;;;9.13;8.83;;;1.50;99.90;;;;;;4989545;28;20238;-83
2022/03/06 18:23:37;;;;;;;9.20;8.90;;;1.60;99.90;;;;;;4988382;28;20245;-83
2022/03/06 18:26:06;;;;;;;9.03;8.83;;;1.60;99.90;;;;;;4988003;28;20229;-82
2022/03/06 18:28:35;;;;;;;9.27;8.97;;;1.60;99.90;;;;;;4989690;28;20232;-82
2022/03/06 18:31:40;;;;;;;9.20;8.90;;;1.50;99.90;;;;;;4989959;28;20242;-83
2022/03/06 18:34:10;;;;;;;9.30;9.00;;;1.50;99.90;;;;;;4991278;28;20238;-83
2022/03/06 18:36:43;;;;;;;9.40;9.10;;;1.40;99.90;;;;;;4991132;28;20240;-83
2022/03/06 18:39:12;;;;;;;9.27;8.97;;;1.40;99.90;;;;;;4988470;28;20214;-83
2022/03/06 18:41:42;;;;;;;9.40;9.10;;;1.40;99.90;;;;;;4987623;28;20299;-83
2022/03/06 18:44:12;;;;;;;9.27;8.97;;;1.30;99.90;;;;;;4994217;28;20269;-83
2022/03/06 18:46:40;;;;;;;9.13;8.83;;;1.30;99.90;;;;;;4993933;28;20261;-82
2022/03/06 18:49:09;;;;;;;9.37;9.07;;;1.30;99.90;;;;;;4996707;28;20237;-82
2022/03/06 18:51:40;;;;;;;9.63;9.33;;;1.30;99.90;;;;;;4994606;28;20241;-82
2022/03/06 18:54:09;;;;;;;9.60;9.30;;;1.30;99.90;;;;;;4997618;28;20237;-82
2022/03/06 18:56:39;;;;;;;9.20;8.90;;;1.30;99.90;;;;;;4998878;28;20241;-83
2022/03/06 18:59:07;;;;;;;9.23;8.93;;;1.20;99.90;;;;;;4999145;28;20245;-83
2022/03/06 19:01:46;;;;;;;9.33;9.03;;;1.20;99.90;;;;;;4999572;28;20238;-83
2022/03/06 19:04:16;;;;;;;9.30;9.00;;;1.20;99.90;;;;;;5000031;28;20224;-83
2022/03/06 19:06:44;;;;;;;9.40;9.10;;;1.30;99.90;;;;;;4999038;28;20225;-83
2022/03/06 19:09:12;;;;;;;9.00;8.80;;;1.30;99.90;;;;;;4999857;28;20225;-83
2022/03/06 19:11:42;;;;;;;8.83;8.63;;;1.30;99.90;;;;;;4999282;28;20225;-84
2022/03/06 19:14:11;;;;;;;9.70;9.40;;;1.30;99.90;;;;;;5000411;28;20303;-83
2022/03/06 19:16:40;;;;;;;9.40;9.10;;;1.30;99.90;;;;;;4999192;28;20247;-83
2022/03/06 19:19:10;;;;;;;9.17;8.87;;;1.30;99.90;;;;;;4997937;28;20222;-82
2022/03/06 19:21:41;;;;;;;9.37;9.07;;;1.20;99.90;;;;;;4999159;28;20249;-82
2022/03/06 19:24:10;;;;;;;9.20;8.90;;;1.20;99.90;;;;;;4999176;28;20300;-83
2022/03/06 19:26:38;;;;;;;9.33;9.03;;;1.20;99.90;;;;;;4998458;28;20273;-84
2022/03/06 19:29:10;;;;;;;9.37;9.07;;;1.10;99.90;;;;;;4999076;28;20229;-83
2022/03/06 19:31:38;;;;;;;9.40;9.10;;;1.10;99.90;;;;;;4997595;28;20233;-83
2022/03/06 19:34:08;;;;;;;9.50;9.20;;;1.00;99.90;;;;;;4995721;28;20252;-83
2022/03/06 19:36:37;;;;;;;9.30;9.00;;;1.00;99.90;;;;;;4993437;28;20293;-83
2022/03/06 19:39:05;;;;;;;9.27;8.97;;;1.00;99.90;;;;;;4989006;28;20254;-82
2022/03/06 19:41:33;;;;;;;9.40;9.10;;;0.90;99.90;;;;;;4986054;28;20233;-82
2022/03/06 19:44:01;;;;;;;9.50;9.20;;;1.00;99.90;;;;;;4982634;28;20244;-83
2022/03/06 19:46:32;;;;;;;9.50;9.20;;;1.00;99.90;;;;;;4981237;28;20241;-82
2022/03/06 19:49:07;;;;;;;9.53;9.23;;;1.00;99.90;;;;;;4981896;28;20257;-82
2022/03/06 19:51:41;;;;;;;9.40;9.10;;;1.00;99.90;;;;;;4982188;28;20284;-82
2022/03/06 19:54:10;;;;;;;9.27;8.97;;;1.00;99.90;;;;;;4982529;28;20276;-83
2022/03/06 19:56:38;;;;;;;9.50;9.20;;;1.00;99.90;;;;;;4981656;28;20241;-82
2022/03/06 19:59:06;;;;;;;9.27;8.97;;;1.00;99.90;;;;;;4982855;28;20233;-82
2022/03/06 20:01:37;;;;;;;9.17;8.87;;;0.90;99.90;;;;;;4981710;28;20237;-83
2022/03/06 20:04:06;;;;;;;8.83;8.63;;;0.90;99.90;;;;;;4983514;28;20253;-82
2022/03/06 20:06:35;;;;;;;8.93;8.73;;;0.90;99.90;;;;;;4989061;28;20230;-82
2022/03/06 20:09:03;;;;;;;9.00;8.80;;;0.80;99.90;;;;;;4988709;28;20286;-82
2022/03/06 20:11:31;;;;;;;8.90;8.70;;;0.70;99.90;;;;;;4987290;28;20243;-82
2022/03/06 20:13:59;;;;;;;8.97;8.77;;;0.70;99.90;;;;;;4985014;28;20245;-82
2022/03/06 20:16:27;;;;;;;9.03;8.80;;;0.80;99.90;;;;;;4984935;28;20222;-82
2022/03/06 20:18:57;;;;;;;8.97;8.73;;;0.80;99.90;;;;;;4985343;28;20225;-82
2022/03/06 20:21:25;;;;;;;9.00;8.80;;;0.70;99.90;;;;;;4983633;28;20233;-83
2022/03/06 20:23:53;;;;;;;8.90;8.70;;;0.70;99.90;;;;;;4987153;28;20239;-82
2022/03/06 20:26:23;;;;;;;9.20;8.90;;;0.60;99.90;;;;;;4989789;28;20248;-82
2022/03/06 20:28:52;;;;;;;9.20;8.90;;;0.60;99.90;;;;;;4988487;28;20230;-83
2022/03/06 20:31:20;;;;;;;9.03;8.83;;;0.60;99.90;;;;;;4989816;28;20233;-82
2022/03/06 20:33:48;;;;;;;9.27;8.97;;;0.70;99.90;;;;;;4989564;28;20312;-83
2022/03/06 20:36:18;;;;;;;9.10;8.80;;;0.70;99.90;;;;;;4991051;28;20269;-82
2022/03/06 20:38:46;;;;;;;9.20;8.90;;;0.60;99.90;;;;;;4990340;28;20232;-83
2022/03/06 20:41:16;;;;;;;9.37;9.07;;;0.70;99.90;;;;;;4997320;28;20221;-83
2022/03/06 20:43:45;;;;;;;9.40;9.10;;;0.70;99.90;;;;;;4998525;28;20240;-82
2022/03/06 20:46:13;;;;;;;9.40;9.10;;;0.80;99.90;;;;;;4998518;28;20289;-83
2022/03/06 20:48:41;;;;;;;9.47;9.17;;;0.60;99.90;;;;;;4995486;28;20226;-82
2022/03/06 20:51:10;;;;;;;9.60;9.30;;;0.60;99.90;;;;;;4992111;28;20241;-82
2022/03/06 20:53:40;;;;;;;9.17;8.87;;;0.70;99.90;;;;;;4994836;28;20245;-82
2022/03/06 20:56:08;;;;;;;9.40;9.10;;;0.70;99.90;;;;;;5000575;28;20233;-81
2022/03/06 20:58:36;;;;;;;9.50;9.20;;;0.70;99.90;;;;;;4999879;28;20224;-81
2022/03/06 21:01:04;;;;;;;9.70;9.40;;;0.70;99.90;;;;;;4994065;28;20233;-81
2022/03/06 21:03:34;;;;;;;9.50;9.20;;;0.70;99.90;;;;;;4993337;28;20241;-82
2022/03/06 21:06:01;;;;;;;9.70;9.40;;;0.80;99.90;;;;;;4989099;28;20233;-83
2022/03/06 21:08:29;;;;;;;9.53;9.23;;;0.80;99.90;;;;;;4989671;28;20231;-82
2022/03/06 21:10:59;;;;;;;9.67;9.37;;;0.80;99.90;;;;;;4993048;28;20293;-82
2022/03/06 21:13:26;;;;;;;9.50;9.20;;;0.70;99.90;;;;;;4991305;28;20237;-82
2022/03/06 21:15:55;;;;;;;9.50;9.20;;;0.60;99.90;;;;;;4990961;28;20221;-82
2022/03/06 21:18:25;;;;;;;9.33;9.03;;;0.70;99.90;;;;;;4989868;28;20237;-82
2022/03/06 21:20:53;;;;;;;9.47;9.17;;;0.60;99.90;;;;;;4990668;28;20264;-82
2022/03/06 21:23:22;;;;;;;9.60;9.30;;;0.50;99.90;;;;;;4988870;28;20299;-82
2022/03/06 21:25:53;;;;;;;9.60;9.30;;;0.60;99.90;;;;;;4989616;28;20260;-82
2022/03/06 21:28:27;;;;;;;9.33;9.03;;;0.60;99.90;;;;;;4989845;28;20232;-82
2022/03/06 21:30:56;;;;;;;9.50;9.20;;;0.50;99.90;;;;;;4989833;28;20253;-82
2022/03/06 21:33:24;;;;;;;9.60;9.30;;;0.60;99.90;;;;;;4989606;28;20256;-82
2022/03/06 21:35:52;;;;;;;9.53;9.23;;;0.60;99.90;;;;;;4988865;28;20298;-83
2022/03/06 21:38:20;;;;;;;9.40;9.10;;;0.60;99.90;;;;;;4986758;28;20233;-82
2022/03/06 21:40:51;;;;;;;9.60;9.30;;;0.60;99.90;;;;;;4985808;28;20241;-82
2022/03/06 21:43:25;;;;;;;9.57;9.27;;;0.60;99.90;;;;;;4984786;28;20237;-81
2022/03/06 21:45:53;;;;;;;9.60;9.30;;;0.50;99.90;;;;;;4984240;28;20233;-82
2022/03/06 21:48:24;;;;;;;9.70;9.40;;;0.50;99.90;;;;;;4984377;28;21062;-82
2022/03/06 21:50:52;;;;;;;9.60;9.30;;;0.40;99.90;;;;;;4986325;28;20234;-82
2022/03/06 21:53:19;;;;;;;9.77;9.47;;;0.40;99.90;;;;;;4985184;28;20289;-82
2022/03/06 21:55:51;;;;;;;9.90;9.60;;;0.50;99.90;;;;;;4989016;28;20240;-82
2022/03/06 21:58:18;;;;;;;9.53;9.23;;;0.40;99.90;;;;;;4986956;28;20330;-82
2022/03/06 22:00:48;;;;;;;9.40;9.10;;;0.40;99.90;;;;;;4984321;28;20244;-82
2022/03/06 22:03:17;;;;;;;9.50;9.20;;;0.30;99.90;;;;;;4984968;28;20269;-82
2022/03/06 22:05:45;;;;;;;9.90;9.60;;;0.30;99.90;;;;;;4989405;28;20236;-82
2022/03/06 22:08:13;;;;;;;9.47;9.17;;;0.30;99.90;;;;;;4989794;28;21004;-82
2022/03/06 22:10:41;;;;;;;9.87;9.57;;;0.30;99.90;;;;;;4987385;28;20236;-82
2022/03/06 22:13:10;;;;;;;9.40;9.10;;;0.30;99.90;;;;;;4987239;28;20312;-82
2022/03/06 22:15:38;;;;;;;9.40;9.10;;;0.30;99.90;;;;;;4989140;28;20256;-82
2022/03/06 22:18:07;;;;;;;9.33;9.03;;;0.30;99.90;;;;;;4988267;28;20268;-82
2022/03/06 22:20:35;;;;;;;9.63;9.33;;;0.40;99.90;;;;;;4989131;28;20233;-82
2022/03/06 22:23:03;;;;;;;9.63;9.33;;;0.40;99.90;;;;;;4988562;28;20241;-83
2022/03/06 22:25:31;;;;;;;9.93;9.63;;;0.50;99.90;;;;;;4989027;28;20291;-82
2022/03/06 22:27:59;;;;;;;9.70;9.40;;;0.40;99.90;;;;;;4990783;28;20241;-82
2022/03/06 22:30:27;;;;;;;9.67;9.37;;;0.40;99.90;;;;;;4989615;28;20312;-82
2022/03/06 22:32:55;;;;;;;9.70;9.40;;;0.40;99.90;;;;;;4988699;28;20230;-82
2022/03/06 22:35:25;;;;;;;9.43;9.13;;;0.40;99.90;;;;;;4988900;28;20240;-82
2022/03/06 22:37:53;;;;;;;9.43;9.13;;;0.40;99.90;;;;;;4989241;28;20225;-83
2022/03/06 22:40:21;;;;;;;9.47;9.17;;;0.40;99.90;;;;;;4989188;28;20237;-82
2022/03/06 22:42:49;;;;;;;9.60;9.30;;;0.40;99.90;;;;;;4987730;28;20256;-82
2022/03/06 22:45:17;;;;;;;9.80;9.50;;;0.40;99.90;;;;;;4989187;28;20252;-81
2022/03/06 22:47:45;;;;;;;9.80;9.50;;;0.40;99.90;;;;;;4988525;28;20969;-82
2022/03/06 22:50:12;;;;;;;9.90;9.60;;;0.50;99.90;;;;;;4990629;28;20238;-82
2022/03/06 22:52:42;;;;;;;9.83;9.53;;;0.40;99.90;;;;;;4991302;28;20249;-82
2022/03/06 22:55:11;;;;;;;9.83;9.53;;;0.20;99.90;;;;;;4992026;28;20233;-82
2022/03/06 22:57:39;;;;;;;10.00;9.70;;;0.30;99.90;;;;;;4988199;28;20233;-83
2022/03/06 23:00:17;;;;;;;9.93;9.63;;;0.30;99.90;;;;;;4987864;28;20237;-81
2022/03/06 23:02:45;;;;;;;9.77;9.47;;;0.40;99.90;;;;;;4986699;28;20233;-82
2022/03/06 23:08:00;;;;;;;9.70;9.40;;;0.40;99.90;;;;;;4994689;28;20246;-82
2022/03/06 23:10:28;;;;;;;9.97;9.67;;;0.50;99.90;;;;;;4988930;28;20238;-82
2022/03/06 23:12:56;;;;;;;10.07;9.77;;;0.40;99.90;;;;;;4986391;28;20233;-82
2022/03/06 23:15:24;;;;;;;9.90;9.60;;;0.30;99.90;;;;;;4987428;28;20229;-82
2022/03/06 23:17:52;;;;;;;9.90;9.60;;;0.20;99.90;;;;;;4987265;28;20301;-82
2022/03/06 23:20:20;;;;;;;9.90;9.60;;;0.10;99.90;;;;;;4986859;28;20235;-82
2022/03/06 23:22:48;;;;;;;9.97;9.67;;;0.10;99.90;;;;;;4986879;28;20276;-82
2022/03/06 23:25:18;;;;;;;9.90;9.60;;;0.10;99.90;;;;;;4992278;28;20229;-82
2022/03/06 23:27:47;;;;;;;10.10;9.80;;;0.10;99.90;;;;;;4988562;28;20248;-82
2022/03/06 23:30:15;;;;;;;10.03;9.73;;;0.00;99.90;;;;;;4985540;28;21089;-82
2022/03/06 23:32:44;;;;;;;10.27;9.97;;;-0.10;99.90;;;;;;4983385;28;20235;-83
2022/03/06 23:35:15;;;;;;;10.00;9.70;;;-0.10;99.90;;;;;;4983115;28;20229;-82
2022/03/06 23:37:43;;;;;;;9.93;9.63;;;-0.20;99.90;;;;;;4982660;28;20233;-82
2022/03/06 23:40:14;;;;;;;9.80;9.50;;;-0.20;99.90;;;;;;4982586;28;20241;-83
2022/03/06 23:42:43;;;;;;;10.13;9.83;;;-0.20;99.90;;;;;;4981925;28;21030;-83
2022/03/06 23:45:14;;;;;;;10.13;9.83;;;-0.20;99.90;;;;;;4982082;28;20249;-82
2022/03/06 23:47:42;;;;;;;10.20;9.90;;;-0.30;99.90;;;;;;4982272;28;20234;-82
2022/03/06 23:50:11;;;;;;;10.00;9.70;;;-0.20;99.90;;;;;;4981388;28;20236;-82
2022/03/06 23:52:39;;;;;;;10.20;9.90;;;-0.20;99.90;;;;;;4981816;28;20237;-82
2022/03/06 23:55:08;;;;;;;10.30;10.00;;;-0.20;99.90;;;;;;4980657;28;20245;-82
